Time;durP1;ratioP1;P1;durP2;ratioP2;P2;SDS_P1;SDS_P2;PMS_P1;PMS_P2;Temp;Humidity;BMP_temperature;BMP_pressure;BME280_temperature;BME280_humidity;BME280_pressure;Samples;Min_cycle;Max_cycle;Signal;HPM_P1;HPM_P2
2023/01/24 00:00:34;;;;;;;19.63;13.70;;;1.90;99.90;;;;;;5070923;28;20032;-75
2023/01/24 00:03:00;;;;;;;20.57;15.20;;;1.90;99.90;;;;;;5070596;28;20131;-76
2023/01/24 00:05:25;;;;;;;21.30;14.40;;;1.90;99.90;;;;;;5071807;28;20032;-75
2023/01/24 00:07:51;;;;;;;18.87;14.33;;;1.90;99.90;;;;;;5071504;28;20048;-75
2023/01/24 00:10:17;;;;;;;22.63;15.87;;;2.00;99.90;;;;;;5070028;28;20037;-75
2023/01/24 00:12:43;;;;;;;20.47;15.47;;;1.90;99.90;;;;;;5052742;28;20471;-76
2023/01/24 00:15:09;;;;;;;21.77;15.30;;;1.90;99.90;;;;;;5071192;28;20078;-75
2023/01/24 00:17:35;;;;;;;20.10;15.10;;;2.00;99.90;;;;;;5071263;28;20029;-75
2023/01/24 00:20:01;;;;;;;19.93;15.23;;;1.90;99.90;;;;;;5071333;28;20500;-75
2023/01/24 00:22:26;;;;;;;22.47;15.83;;;1.90;99.90;;;;;;5070892;28;20052;-75
2023/01/24 00:24:52;;;;;;;20.57;14.67;;;2.00;99.90;;;;;;5070581;28;20036;-75
2023/01/24 00:27:18;;;;;;;21.80;15.27;;;2.00;99.90;;;;;;5070395;28;20521;-76
2023/01/24 00:29:44;;;;;;;21.17;16.50;;;2.00;99.90;;;;;;5071107;28;20048;-76
2023/01/24 00:32:09;;;;;;;24.43;15.80;;;2.00;99.90;;;;;;5070737;28;20037;-75
2023/01/24 00:34:35;;;;;;;23.23;16.33;;;2.00;99.90;;;;;;5065496;28;20272;-77
2023/01/24 00:37:01;;;;;;;24.80;17.17;;;2.00;99.90;;;;;;5070267;28;20037;-76
2023/01/24 00:39:27;;;;;;;21.97;16.03;;;1.90;99.90;;;;;;5070819;28;20409;-76
2023/01/24 00:41:52;;;;;;;26.63;19.30;;;1.90;99.90;;;;;;5070766;28;20072;-76
2023/01/24 00:44:18;;;;;;;31.33;18.67;;;2.00;99.90;;;;;;5070206;28;20041;-75
2023/01/24 00:46:44;;;;;;;27.40;19.07;;;2.00;99.90;;;;;;5070279;28;20479;-77
2023/01/24 00:49:10;;;;;;;24.40;17.77;;;2.00;99.90;;;;;;5070629;28;20156;-76
2023/01/24 00:51:35;;;;;;;27.90;19.00;;;2.10;99.90;;;;;;5070791;28;20032;-76
2023/01/24 00:54:01;;;;;;;28.80;19.57;;;2.00;99.90;;;;;;5069780;28;20127;-76
2023/01/24 00:56:27;;;;;;;30.27;20.43;;;2.00;99.90;;;;;;5069915;28;20048;-75
2023/01/24 00:58:52;;;;;;;28.07;19.60;;;2.00;99.90;;;;;;5069011;28;20049;-75
2023/01/24 01:01:19;;;;;;;31.17;20.17;;;2.00;99.90;;;;;;5069881;28;20036;-76
2023/01/24 01:03:45;;;;;;;32.33;21.40;;;2.00;99.90;;;;;;5069091;28;20479;-76
2023/01/24 01:06:13;;;;;;;32.00;21.80;;;2.00;99.90;;;;;;5069665;28;20099;-76
2023/01/24 01:08:39;;;;;;;30.97;20.73;;;2.00;99.90;;;;;;5068376;28;20036;-75
2023/01/24 01:11:05;;;;;;;30.80;21.00;;;2.00;99.90;;;;;;5069058;28;20051;-75
2023/01/24 01:13:31;;;;;;;31.70;21.03;;;2.00;99.90;;;;;;5069182;28;20055;-75
2023/01/24 01:16:05;;;;;;;31.67;22.23;;;2.10;99.90;;;;;;5068191;28;20044;-75
2023/01/24 01:18:31;;;;;;;32.63;22.13;;;2.00;99.90;;;;;;5068676;28;20044;-75
2023/01/24 01:20:56;;;;;;;35.30;23.23;;;2.00;99.90;;;;;;5070533;28;20040;-76
2023/01/24 01:23:22;;;;;;;35.03;22.50;;;2.00;99.90;;;;;;5068072;28;20101;-75
2023/01/24 01:25:48;;;;;;;31.43;22.67;;;2.00;99.90;;;;;;5069700;28;20072;-75
2023/01/24 01:28:13;;;;;;;34.17;22.83;;;2.00;99.90;;;;;;5069283;28;20086;-75
2023/01/24 01:30:39;;;;;;;35.53;24.47;;;2.00;99.90;;;;;;5070204;28;20545;-75
2023/01/24 01:33:05;;;;;;;36.70;23.90;;;2.00;99.90;;;;;;5068881;28;20088;-76
2023/01/24 01:35:30;;;;;;;38.57;24.73;;;2.00;99.90;;;;;;5064910;28;20150;-78
2023/01/24 01:37:56;;;;;;;35.47;24.30;;;2.10;99.90;;;;;;5069125;28;20048;-75
2023/01/24 01:40:22;;;;;;;35.57;24.50;;;2.00;99.90;;;;;;5069576;28;20048;-75
2023/01/24 01:42:50;;;;;;;38.87;25.17;;;2.20;99.90;;;;;;5069181;28;20079;-75
2023/01/24 01:45:43;;;;;;;37.90;24.10;;;2.10;99.90;;;;;;5069813;28;20047;-75
2023/01/24 01:48:23;;;;;;;37.43;23.67;;;2.10;99.90;;;;;;5069327;28;20049;-76
2023/01/24 01:51:00;;;;;;;35.67;23.97;;;2.10;99.90;;;;;;5069164;28;20048;-76
2023/01/24 01:53:31;;;;;;;35.50;24.10;;;2.00;99.90;;;;;;5061957;28;20040;-75
2023/01/24 01:56:05;;;;;;;36.95;24.13;;;2.10;99.90;;;;;;5069952;28;20036;-74
2023/01/24 01:58:32;;;;;;;39.27;24.50;;;2.10;99.90;;;;;;5058498;28;20136;-76
2023/01/24 02:00:58;;;;;;;41.80;25.07;;;2.10;99.90;;;;;;5070005;28;20040;-75
2023/01/24 02:03:38;;;;;;;38.43;26.17;;;2.10;99.90;;;;;;5068978;28;20052;-76
2023/01/24 02:06:12;;;;;;;37.43;24.33;;;2.10;99.90;;;;;;5069974;28;20048;-76
2023/01/24 02:08:39;;;;;;;37.73;25.13;;;2.10;99.90;;;;;;5069045;28;20047;-75
2023/01/24 02:16:01;;;;;;;38.53;24.10;;;2.00;99.90;;;;;;5054751;28;20435;-76
2023/01/24 02:16:37;;;;;;;39.77;25.93;;;2.10;99.90;;;;;;5068782;28;20467;-75
2023/01/24 02:19:03;;;;;;;36.23;24.60;;;2.00;99.90;;;;;;5068910;28;20043;-75
2023/01/24 02:21:28;;;;;;;39.20;25.17;;;2.00;99.90;;;;;;5069541;28;20033;-76
2023/01/24 02:23:59;;;;;;;38.57;25.60;;;2.00;99.90;;;;;;5068510;28;20056;-76
2023/01/24 02:26:27;;;;;;;41.77;26.83;;;2.10;99.90;;;;;;5068504;28;20040;-75
2023/01/24 02:29:03;;;;;;;39.77;25.23;;;2.00;99.90;;;;;;5068926;28;20044;-76
2023/01/24 02:31:28;;;;;;;38.73;25.27;;;2.00;99.90;;;;;;5068715;28;20032;-75
2023/01/24 02:33:54;;;;;;;39.97;26.40;;;2.00;99.90;;;;;;5068797;28;20151;-75
2023/01/24 02:36:32;;;;;;;41.10;25.83;;;2.20;99.90;;;;;;5068889;28;20048;-75
2023/01/24 02:39:06;;;;;;;41.10;25.63;;;2.10;99.90;;;;;;5069412;28;20044;-77
2023/01/24 02:41:55;;;;;;;42.13;26.70;;;2.10;99.90;;;;;;5069413;28;20051;-76
2023/01/24 02:44:53;;;;;;;42.60;26.70;;;2.10;99.90;;;;;;5047568;28;20040;-75
2023/01/24 02:47:19;;;;;;;43.13;26.77;;;2.10;99.90;;;;;;5068670;28;20538;-75
2023/01/24 02:49:45;;;;;;;43.53;27.57;;;2.00;99.90;;;;;;5072692;28;20075;-75
2023/01/24 02:54:55;;;;;;;43.47;27.63;;;2.00;99.90;;;;;;5072351;28;20491;-75
2023/01/24 03:00:08;;;;;;;45.70;27.27;;;2.10;99.90;;;;;;5067098;28;20055;-75
2023/01/24 03:02:34;;;;;;;45.47;28.43;;;2.00;99.90;;;;;;5072355;28;20431;-75
2023/01/24 03:04:59;;;;;;;41.67;27.40;;;2.00;99.90;;;;;;5072496;28;20139;-76
2023/01/24 03:07:25;;;;;;;46.97;28.50;;;2.00;99.90;;;;;;5071848;28;20072;-75
2023/01/24 03:09:51;;;;;;;43.30;28.03;;;2.10;99.90;;;;;;5071492;28;20150;-76
2023/01/24 03:36:57;;;;;;;41.70;25.87;;;2.10;99.90;;;;;;5068526;28;20106;-76
2023/01/24 03:42:07;;;;;;;38.33;24.57;;;2.00;99.90;;;;;;5057702;28;20052;-76
2023/01/24 03:44:33;;;;;;;34.80;22.87;;;2.10;99.90;;;;;;5069659;28;20045;-75
2023/01/24 03:46:58;;;;;;;31.77;22.30;;;2.10;99.90;;;;;;5069286;28;20048;-75
2023/01/24 03:52:30;;;;;;;34.07;23.77;;;2.30;99.90;;;;;;5068114;28;20047;-76
2023/01/24 03:54:57;;;;;;;37.23;23.87;;;2.20;99.90;;;;;;5055985;28;20083;-76
2023/01/24 03:57:23;;;;;;;38.13;24.90;;;2.20;99.90;;;;;;5070800;28;20467;-76
2023/01/24 03:59:49;;;;;;;37.67;24.50;;;2.10;99.90;;;;;;5071051;28;20048;-75
2023/01/24 04:02:16;;;;;;;36.57;24.23;;;2.10;99.90;;;;;;5071002;28;20036;-76
2023/01/24 04:07:27;;;;;;;37.50;23.20;;;2.10;99.90;;;;;;5069539;28;20052;-76
2023/01/24 04:09:53;;;;;;;34.60;23.27;;;2.10;99.90;;;;;;5071171;28;20093;-76
2023/01/24 04:12:19;;;;;;;33.80;23.33;;;2.20;99.90;;;;;;5070967;28;20433;-76
2023/01/24 04:14:44;;;;;;;33.50;22.57;;;2.10;99.90;;;;;;5069597;28;20052;-76
2023/01/24 04:17:10;;;;;;;33.50;23.00;;;2.10;99.90;;;;;;5070540;28;20048;-75
2023/01/24 04:19:36;;;;;;;32.17;22.67;;;2.20;99.90;;;;;;5071565;28;20059;-75
2023/01/24 04:22:01;;;;;;;33.30;22.73;;;2.20;99.90;;;;;;5069223;28;20067;-73
2023/01/24 04:24:27;;;;;;;32.53;22.87;;;2.10;99.90;;;;;;5070840;28;20060;-75
2023/01/24 04:26:53;;;;;;;32.87;22.87;;;2.30;99.90;;;;;;5070830;28;20074;-75
2023/01/24 04:29:18;;;;;;;35.83;23.00;;;2.20;99.90;;;;;;5068913;28;20048;-76
2023/01/24 04:31:44;;;;;;;33.23;23.37;;;2.20;99.90;;;;;;5071238;28;20048;-75
2023/01/24 04:34:10;;;;;;;33.53;23.73;;;2.10;99.90;;;;;;5064952;28;20139;-75
2023/01/24 04:36:35;;;;;;;31.20;23.17;;;2.20;99.90;;;;;;5069706;28;20133;-76
2023/01/24 04:39:01;;;;;;;34.33;23.17;;;2.30;99.90;;;;;;5071635;28;20039;-75
2023/01/24 04:41:27;;;;;;;35.50;23.80;;;2.10;99.90;;;;;;5070850;28;20040;-75
2023/01/24 04:43:52;;;;;;;40.50;25.30;;;2.40;99.90;;;;;;5070386;28;20386;-75
2023/01/24 04:46:18;;;;;;;38.53;25.23;;;2.20;99.90;;;;;;5070963;28;20122;-76
2023/01/24 04:48:43;;;;;;;39.10;25.97;;;2.20;99.90;;;;;;5070604;28;20046;-75
2023/01/24 04:51:09;;;;;;;38.47;26.43;;;2.10;99.90;;;;;;5070190;28;20076;-76
2023/01/24 04:53:39;;;;;;;41.77;27.27;;;2.10;99.90;;;;;;5068938;28;20125;-75
2023/01/24 04:56:05;;;;;;;39.53;26.00;;;2.20;99.90;;;;;;5086529;28;20055;-75
2023/01/24 04:58:32;;;;;;;28.57;20.27;;;2.10;99.90;;;;;;5066043;28;20500;-76
2023/01/24 05:00:58;;;;;;;25.53;19.17;;;2.60;99.90;;;;;;5059374;28;20071;-75
2023/01/24 05:03:23;;;;;;;24.80;18.77;;;2.10;99.90;;;;;;5061812;28;20474;-76
2023/01/24 05:05:50;;;;;;;24.77;17.47;;;2.30;99.90;;;;;;5067232;28;20398;-75
2023/01/24 05:08:16;;;;;;;23.83;18.30;;;2.10;99.90;;;;;;5067846;28;20500;-75
2023/01/24 05:10:42;;;;;;;24.63;18.80;;;2.10;99.90;;;;;;5067828;28;20037;-75
2023/01/24 05:13:07;;;;;;;26.63;19.10;;;2.10;99.90;;;;;;5067813;28;20059;-76
2023/01/24 05:15:33;;;;;;;23.80;18.60;;;2.20;99.90;;;;;;5065923;28;20202;-76
2023/01/24 05:17:59;;;;;;;24.37;17.53;;;2.30;99.90;;;;;;5068921;28;20127;-76
2023/01/24 05:20:25;;;;;;;25.00;18.80;;;2.20;99.90;;;;;;5068260;28;20044;-75
2023/01/24 05:22:50;;;;;;;26.90;18.87;;;2.20;99.90;;;;;;5069971;28;20040;-76
2023/01/24 05:25:17;;;;;;;27.23;19.57;;;2.20;99.90;;;;;;5060345;28;20037;-76
2023/01/24 05:27:43;;;;;;;27.83;20.53;;;2.40;99.90;;;;;;5070126;28;20127;-75
2023/01/24 05:30:09;;;;;;;31.40;22.30;;;2.20;99.90;;;;;;5069382;28;20123;-76
2023/01/24 05:32:35;;;;;;;31.57;21.80;;;2.20;99.90;;;;;;5069394;28;20029;-75
2023/01/24 05:35:01;;;;;;;34.00;23.87;;;2.20;99.90;;;;;;5070031;28;20165;-75
2023/01/24 05:37:26;;;;;;;32.63;22.77;;;2.20;99.90;;;;;;5070171;28;20042;-76
2023/01/24 05:39:52;;;;;;;29.90;21.90;;;2.20;99.90;;;;;;5070027;28;20086;-75
2023/01/24 05:42:18;;;;;;;28.73;21.13;;;2.20;99.90;;;;;;5069708;28;20028;-75
2023/01/24 05:44:43;;;;;;;29.57;21.93;;;2.10;99.90;;;;;;5070031;28;20047;-75
2023/01/24 05:47:09;;;;;;;29.60;21.90;;;2.10;99.90;;;;;;5069153;28;20040;-75
2023/01/24 05:49:35;;;;;;;28.20;21.90;;;2.20;99.90;;;;;;5070099;28;20098;-75
2023/01/24 05:52:00;;;;;;;31.07;22.87;;;2.20;99.90;;;;;;5069938;28;20079;-75
2023/01/24 05:54:26;;;;;;;30.53;22.87;;;2.10;99.90;;;;;;5069106;28;20045;-75
2023/01/24 05:56:52;;;;;;;30.73;21.60;;;2.20;99.90;;;;;;5069831;28;20048;-75
2023/01/24 05:59:18;;;;;;;29.30;21.87;;;2.20;99.90;;;;;;5068942;28;20529;-75
2023/01/24 06:01:44;;;;;;;30.37;21.80;;;2.20;99.90;;;;;;5066354;28;20063;-75
2023/01/24 06:04:09;;;;;;;30.77;20.80;;;2.10;99.90;;;;;;5066171;28;20079;-75
2023/01/24 06:06:35;;;;;;;29.33;21.40;;;2.10;99.90;;;;;;5067077;28;20044;-75
2023/01/24 06:09:01;;;;;;;27.40;19.47;;;2.10;99.90;;;;;;5066382;28;20040;-76
2023/01/24 06:11:28;;;;;;;28.50;20.70;;;2.20;99.90;;;;;;5067777;28;20037;-75
2023/01/24 06:13:54;;;;;;;29.70;21.97;;;2.10;99.90;;;;;;5068156;28;20048;-76
2023/01/24 06:16:23;;;;;;;29.23;21.27;;;2.20;99.90;;;;;;5067895;28;20315;-75
2023/01/24 06:18:50;;;;;;;28.20;21.17;;;2.10;99.90;;;;;;5069856;28;20127;-75
2023/01/24 06:21:49;;;;;;;31.00;22.23;;;2.10;99.90;;;;;;5069825;28;20044;-75
2023/01/24 06:24:14;;;;;;;30.27;21.40;;;2.20;99.90;;;;;;5058490;28;20049;-75
2023/01/24 06:26:41;;;;;;;30.73;21.67;;;2.10;99.90;;;;;;5072405;28;20581;-75
2023/01/24 06:29:09;;;;;;;33.20;22.70;;;2.10;99.90;;;;;;5089437;28;20075;-76
2023/01/24 06:31:50;;;;;;;32.60;22.40;;;2.10;99.90;;;;;;5089369;28;20063;-75
2023/01/24 06:34:22;;;;;;;33.70;22.43;;;2.10;99.90;;;;;;5080264;28;20067;-75
2023/01/24 06:37:14;;;;;;;37.33;25.20;;;2.10;99.90;;;;;;5067509;28;20047;-77
2023/01/24 06:39:45;;;;;;;35.08;23.15;;;2.10;99.90;;;;;;5069685;28;20410;-75
2023/01/24 06:42:11;;;;;;;34.55;23.98;;;2.10;99.90;;;;;;5068789;28;20041;-76
2023/01/24 06:44:37;;;;;;;34.80;23.80;;;2.10;99.90;;;;;;5068519;28;20056;-75
2023/01/24 06:47:02;;;;;;;34.70;23.17;;;2.10;99.90;;;;;;5069138;28;20395;-75
2023/01/24 06:49:28;;;;;;;35.23;24.77;;;2.00;99.90;;;;;;5069427;28;20379;-75
2023/01/24 06:51:53;;;;;;;36.47;24.83;;;2.20;99.90;;;;;;5069282;28;20338;-75
2023/01/24 06:54:19;;;;;;;34.60;22.67;;;2.10;99.90;;;;;;5068531;28;20048;-75
2023/01/24 06:56:45;;;;;;;32.67;21.80;;;2.10;99.90;;;;;;5067311;28;20091;-78
2023/01/24 06:59:10;;;;;;;36.03;23.67;;;2.10;99.90;;;;;;5064521;28;20046;-76
2023/01/24 07:01:36;;;;;;;37.57;25.17;;;2.10;99.90;;;;;;5066779;28;20127;-75
2023/01/24 07:04:02;;;;;;;35.93;25.10;;;2.10;99.90;;;;;;5065683;28;20071;-75
2023/01/24 07:06:27;;;;;;;32.07;23.07;;;2.10;99.90;;;;;;5069017;28;20471;-75
2023/01/24 07:08:53;;;;;;;33.43;24.70;;;2.00;99.90;;;;;;5065671;28;20072;-76
2023/01/24 07:11:19;;;;;;;36.33;24.60;;;2.10;99.90;;;;;;5067433;28;20080;-76
2023/01/24 07:13:44;;;;;;;39.03;25.40;;;2.00;99.90;;;;;;5068090;28;20052;-76
2023/01/24 07:16:10;;;;;;;39.93;26.63;;;2.00;99.90;;;;;;5068643;28;20048;-76
2023/01/24 07:18:36;;;;;;;34.50;24.77;;;2.00;99.90;;;;;;5068155;28;20055;-75
2023/01/24 07:21:06;;;;;;;36.03;24.57;;;2.00;99.90;;;;;;5069029;28;20123;-75
2023/01/24 07:23:34;;;;;;;37.17;24.67;;;2.00;99.90;;;;;;5068115;28;20071;-76
2023/01/24 07:26:00;;;;;;;36.07;24.70;;;2.00;99.90;;;;;;5061930;28;20052;-76
2023/01/24 07:28:26;;;;;;;38.80;25.60;;;2.00;99.90;;;;;;5068050;28;20040;-76
2023/01/24 07:30:53;;;;;;;37.40;24.33;;;2.00;99.90;;;;;;5068714;28;20063;-76
2023/01/24 07:33:19;;;;;;;35.07;24.37;;;2.00;99.90;;;;;;5066853;28;20467;-77
2023/01/24 07:35:45;;;;;;;41.97;26.10;;;2.00;99.90;;;;;;5068626;28;20075;-76
2023/01/24 07:38:14;;;;;;;37.70;25.07;;;2.00;99.90;;;;;;5072867;28;20102;-76
2023/01/24 07:40:40;;;;;;;38.73;26.13;;;2.00;99.90;;;;;;5072186;28;20145;-76
2023/01/24 07:43:06;;;;;;;42.20;28.37;;;2.00;99.90;;;;;;5071769;28;20486;-75
2023/01/24 07:45:34;;;;;;;44.97;27.20;;;1.90;99.90;;;;;;5072412;28;20083;-75
2023/01/24 07:48:00;;;;;;;38.03;27.13;;;2.00;99.90;;;;;;5071443;28;20044;-76
2023/01/24 07:50:26;;;;;;;43.30;28.37;;;1.90;99.90;;;;;;5072326;28;20496;-76
2023/01/24 07:52:53;;;;;;;43.60;28.90;;;1.90;99.90;;;;;;5071858;28;20042;-76
2023/01/24 07:55:20;;;;;;;40.83;27.23;;;2.00;99.90;;;;;;5070863;28;20041;-76
2023/01/24 07:57:46;;;;;;;42.30;27.40;;;2.00;99.90;;;;;;5070319;28;20072;-77
2023/01/24 08:00:13;;;;;;;41.17;26.13;;;2.00;99.90;;;;;;5071580;28;20508;-75
2023/01/24 08:02:39;;;;;;;37.40;26.33;;;1.90;99.90;;;;;;5071636;28;20039;-76
2023/01/24 08:05:06;;;;;;;34.33;22.73;;;1.90;99.90;;;;;;5072217;28;20098;-77
2023/01/24 08:07:31;;;;;;;33.47;22.23;;;1.90;99.90;;;;;;5071960;28;20091;-77
2023/01/24 08:09:57;;;;;;;31.53;22.57;;;1.90;99.90;;;;;;5071592;28;20437;-75
2023/01/24 08:12:23;;;;;;;32.57;21.57;;;1.90;99.90;;;;;;5070945;28;20059;-77
2023/01/24 08:14:49;;;;;;;33.83;22.37;;;2.00;99.90;;;;;;5070520;28;20360;-77
2023/01/24 08:17:15;;;;;;;33.63;21.30;;;1.90;99.90;;;;;;5071290;28;20143;-77
2023/01/24 08:19:41;;;;;;;28.63;20.17;;;1.90;99.90;;;;;;5071761;28;20390;-76
2023/01/24 08:22:06;;;;;;;32.17;22.47;;;1.90;99.90;;;;;;5070304;28;20470;-77
2023/01/24 08:24:32;;;;;;;31.40;22.73;;;1.90;99.90;;;;;;5061339;28;20064;-77
2023/01/24 08:27:00;;;;;;;34.90;24.27;;;1.90;99.90;;;;;;5069869;28;20485;-76
2023/01/24 08:29:26;;;;;;;29.97;21.50;;;1.90;99.90;;;;;;5069733;28;20520;-77
2023/01/24 08:31:52;;;;;;;33.27;22.87;;;1.90;99.90;;;;;;5071312;28;20336;-75
2023/01/24 08:34:17;;;;;;;36.20;23.80;;;1.90;99.90;;;;;;5070712;28;20060;-77
2023/01/24 08:36:43;;;;;;;29.70;20.73;;;2.00;99.90;;;;;;5071807;28;20274;-74
2023/01/24 08:39:09;;;;;;;27.43;19.47;;;1.90;99.90;;;;;;5069431;28;20097;-74
2023/01/24 08:41:35;;;;;;;27.07;18.43;;;1.90;99.90;;;;;;5071421;28;20072;-77
2023/01/24 08:44:02;;;;;;;32.03;19.70;;;2.00;99.90;;;;;;5070396;28;20102;-77
2023/01/24 08:46:29;;;;;;;29.37;19.97;;;2.10;99.90;;;;;;5071491;28;20036;-77
2023/01/24 08:48:54;;;;;;;29.60;19.43;;;2.00;99.90;;;;;;5070829;28;20510;-77
2023/01/24 08:51:20;;;;;;;27.50;18.80;;;2.00;99.90;;;;;;5070365;28;20052;-77
2023/01/24 08:53:45;;;;;;;26.53;18.73;;;2.00;99.90;;;;;;5070708;28;20101;-77
2023/01/24 08:56:12;;;;;;;26.10;18.50;;;2.10;99.90;;;;;;5071093;28;20356;-77
2023/01/24 08:58:37;;;;;;;26.57;18.63;;;2.00;99.90;;;;;;5070008;28;20048;-76
2023/01/24 09:01:07;;;;;;;26.47;18.40;;;1.90;99.90;;;;;;5069435;28;20037;-77
2023/01/24 09:03:33;;;;;;;26.63;18.47;;;2.00;99.90;;;;;;5069855;28;20443;-77
2023/01/24 09:05:59;;;;;;;26.20;18.37;;;2.00;99.90;;;;;;5070565;28;20048;-77
2023/01/24 09:08:25;;;;;;;23.67;17.40;;;2.00;99.90;;;;;;5069070;28;20494;-75
2023/01/24 09:10:51;;;;;;;24.57;17.67;;;2.00;99.90;;;;;;5070799;28;20044;-76
2023/01/24 09:13:17;;;;;;;27.43;17.93;;;2.10;99.90;;;;;;5069477;28;20386;-78
2023/01/24 09:15:43;;;;;;;26.33;18.00;;;2.00;99.90;;;;;;5070000;28;20040;-76
2023/01/24 09:18:09;;;;;;;28.67;19.00;;;2.00;99.90;;;;;;5069668;28;20043;-75
2023/01/24 09:20:35;;;;;;;28.33;20.43;;;2.10;99.90;;;;;;5070773;28;20041;-74
2023/01/24 09:23:08;;;;;;;26.37;17.60;;;2.20;99.90;;;;;;5070323;28;20060;-76
2023/01/24 09:25:33;;;;;;;31.23;20.47;;;2.10;99.90;;;;;;5060220;28;20036;-76
2023/01/24 09:27:59;;;;;;;28.23;19.87;;;2.10;99.90;;;;;;5068632;28;20117;-75
2023/01/24 09:30:25;;;;;;;23.30;17.30;;;2.30;99.90;;;;;;5069872;28;20357;-75
2023/01/24 09:32:50;;;;;;;25.17;17.50;;;2.10;99.90;;;;;;5069421;28;20493;-74
2023/01/24 09:35:16;;;;;;;24.90;17.23;;;2.10;99.90;;;;;;5070561;28;20055;-75
2023/01/24 09:37:42;;;;;;;22.07;15.90;;;2.10;99.90;;;;;;5070112;28;20056;-74
2023/01/24 09:40:51;;;;;;;22.70;15.30;;;2.10;99.90;;;;;;5070053;28;20088;-75
2023/01/24 09:43:45;;;;;;;23.93;16.80;;;2.10;99.90;;;;;;5068136;28;20040;-75
2023/01/24 09:46:43;;;;;;;25.20;15.87;;;2.10;99.90;;;;;;5069987;28;20048;-75
2023/01/24 09:49:15;;;;;;;25.83;17.23;;;2.10;99.90;;;;;;5068576;28;20047;-75
2023/01/24 09:51:48;;;;;;;24.20;16.77;;;2.10;99.90;;;;;;5070100;28;20048;-75
2023/01/24 09:54:43;;;;;;;24.67;16.00;;;2.10;99.90;;;;;;5069686;28;20048;-75
2023/01/24 09:57:21;;;;;;;21.33;15.83;;;2.10;99.90;;;;;;5068991;28;20056;-75
2023/01/24 09:59:52;;;;;;;21.03;15.73;;;2.20;99.90;;;;;;5049486;28;20443;-74
2023/01/24 10:02:21;;;;;;;25.65;16.38;;;2.40;99.90;;;;;;5050013;28;20584;-75
2023/01/24 10:04:48;;;;;;;22.57;16.77;;;2.10;99.90;;;;;;5049704;28;20081;-76
2023/01/24 10:07:20;;;;;;;23.73;17.40;;;2.30;99.90;;;;;;5048715;28;20138;-75
2023/01/24 10:09:45;;;;;;;;;;;2.20;99.90;;;;;;5035640;28;20144;-75
2023/01/24 10:12:39;;;;;;;23.33;13.70;;;2.20;99.90;;;;;;5069232;28;20018;-75
2023/01/24 10:15:04;;;;;;;23.50;15.10;;;2.30;99.90;;;;;;5067173;28;20109;-76
2023/01/24 10:18:22;;;;;;;21.83;14.73;;;2.30;99.90;;;;;;5068522;28;20070;-75
2023/01/24 10:21:18;;;;;;;21.83;15.10;;;2.30;99.90;;;;;;5043886;28;20048;-75
2023/01/24 10:23:50;;;;;;;21.17;14.93;;;2.30;99.90;;;;;;5063839;28;20041;-76
2023/01/24 10:26:26;;;;;;;20.93;15.10;;;2.30;99.90;;;;;;5065268;28;20083;-75
2023/01/24 10:28:59;;;;;;;22.37;15.40;;;2.30;99.90;;;;;;5069312;28;20045;-75
2023/01/24 10:31:34;;;;;;;21.63;14.73;;;2.30;99.90;;;;;;5068611;28;20127;-76
2023/01/24 10:34:12;;;;;;;20.63;15.47;;;2.40;99.90;;;;;;5068110;28;20061;-75
2023/01/24 10:36:47;;;;;;;22.30;15.77;;;2.30;99.90;;;;;;5069754;28;20386;-75
2023/01/24 10:39:13;;;;;;;23.97;15.90;;;2.40;99.90;;;;;;5070067;28;20195;-75
2023/01/24 10:41:39;;;;;;;20.10;15.20;;;2.30;99.90;;;;;;5069266;28;20115;-76
2023/01/24 10:44:40;;;;;;;21.70;15.23;;;2.30;99.90;;;;;;5068701;28;20101;-75
2023/01/24 10:47:25;;;;;;;;;;;2.30;99.90;;;;;;4990650;28;20046;-75
2023/01/24 10:49:58;;;;;;;22.00;15.53;;;2.30;99.90;;;;;;5064566;28;19939;-75
2023/01/24 10:52:24;;;;;;;23.27;15.70;;;2.40;99.90;;;;;;5068642;28;20036;-75
2023/01/24 10:54:58;;;;;;;22.07;15.70;;;2.30;99.90;;;;;;5068358;28;20055;-75
2023/01/24 10:57:43;;;;;;;22.80;16.30;;;2.30;99.90;;;;;;5067968;28;20036;-75
2023/01/24 11:00:27;;;;;;;21.47;15.57;;;2.30;99.90;;;;;;5069574;28;20052;-75
2023/01/24 11:02:57;;;;;;;23.17;15.03;;;2.30;99.90;;;;;;5051581;28;20041;-75
2023/01/24 11:05:25;;;;;;;22.10;16.20;;;2.30;99.90;;;;;;5068817;28;20084;-76
2023/01/24 11:07:54;;;;;;;22.83;15.93;;;2.40;99.90;;;;;;5068651;28;20433;-75
2023/01/24 11:10:24;;;;;;;23.43;17.00;;;2.30;99.90;;;;;;5069152;28;20449;-75
2023/01/24 11:13:01;;;;;;;22.13;16.07;;;2.30;99.90;;;;;;5072278;28;20046;-75
2023/01/24 11:15:31;;;;;;;22.90;16.80;;;2.30;99.90;;;;;;5072601;28;20052;-76
2023/01/24 11:18:22;;;;;;;22.37;16.23;;;2.50;99.90;;;;;;5072814;28;20040;-76
2023/01/24 11:21:11;;;;;;;23.23;16.27;;;2.40;99.90;;;;;;5065097;28;20125;-75
2023/01/24 11:23:37;;;;;;;22.67;16.97;;;2.40;99.90;;;;;;5068200;28;20069;-76
2023/01/24 11:26:05;;;;;;;24.70;16.57;;;2.40;99.90;;;;;;5066911;28;20037;-76
2023/01/24 11:28:34;;;;;;;22.63;16.97;;;2.30;99.90;;;;;;5072278;28;20098;-75
2023/01/24 11:31:15;;;;;;;23.63;17.20;;;2.40;99.90;;;;;;5072376;28;20033;-77
2023/01/24 11:34:10;;;;;;;;;;;2.50;99.90;;;;;;5054368;28;20036;-76
2023/01/24 11:37:04;;;;;;;23.03;16.30;;;2.40;99.90;;;;;;5054683;28;19923;-75
2023/01/24 11:39:45;;;;;;;23.40;16.43;;;2.40;99.90;;;;;;5072112;28;20048;-75
2023/01/24 11:42:40;;;;;;;22.10;16.00;;;2.30;99.90;;;;;;5071987;28;20493;-75
2023/01/24 11:45:17;;;;;;;24.77;17.27;;;2.40;99.90;;;;;;5068839;28;20063;-76
2023/01/24 11:48:11;;;;;;;22.27;16.20;;;2.40;99.90;;;;;;5071301;28;20094;-75
2023/01/24 11:50:50;;;;;;;22.40;16.57;;;2.40;99.90;;;;;;5067185;28;20067;-76
2023/01/24 11:53:30;;;;;;;21.17;15.77;;;2.40;99.90;;;;;;5071078;28;20040;-78
2023/01/24 11:56:12;;;;;;;21.20;15.57;;;2.40;99.90;;;;;;5070466;28;20123;-75
2023/01/24 11:58:40;;;;;;;22.03;15.17;;;2.40;99.90;;;;;;5071613;28;20496;-75
2023/01/24 12:01:20;;;;;;;23.13;15.93;;;2.50;99.90;;;;;;5071509;28;20520;-75
2023/01/24 12:03:54;;;;;;;20.27;14.80;;;2.50;99.90;;;;;;5071263;28;20535;-76
2023/01/24 12:06:32;;;;;;;23.73;15.30;;;2.40;99.90;;;;;;5071385;28;20048;-75
2023/01/24 12:09:12;;;;;;;20.67;15.93;;;2.40;99.90;;;;;;5071714;28;20044;-75
2023/01/24 12:11:47;;;;;;;24.03;15.50;;;2.40;99.90;;;;;;5071922;28;20048;-75
2023/01/24 12:14:35;;;;;;;22.80;16.10;;;2.40;99.90;;;;;;5070972;28;20048;-76
2023/01/24 12:17:27;;;;;;;21.20;16.10;;;2.40;99.90;;;;;;5070354;28;20054;-76
2023/01/24 12:20:14;;;;;;;20.40;15.55;;;2.30;99.90;;;;;;5071492;28;20060;-75
2023/01/24 12:22:41;;;;;;;22.93;15.53;;;2.30;99.90;;;;;;5070543;28;20506;-75
2023/01/24 12:25:35;;;;;;;23.57;16.03;;;2.40;99.90;;;;;;5061849;28;20038;-76
2023/01/24 12:28:05;;;;;;;23.10;16.90;;;2.30;99.90;;;;;;5062453;28;20036;-75
2023/01/24 12:30:41;;;;;;;22.47;15.90;;;2.30;99.90;;;;;;5070755;28;20078;-75
2023/01/24 12:33:25;;;;;;;24.17;17.23;;;2.40;99.90;;;;;;5070713;28;20044;-75
2023/01/24 12:36:06;;;;;;;23.23;17.03;;;2.40;99.90;;;;;;5060028;28;20143;-76
2023/01/24 12:38:45;;;;;;;19.88;13.45;;;2.30;99.90;;;;;;5071885;28;20044;-75
2023/01/24 12:41:31;;;;;;;21.87;15.87;;;2.30;99.90;;;;;;5070586;28;20120;-76
2023/01/24 12:44:26;;;;;;;23.53;16.40;;;2.50;99.90;;;;;;5071378;28;20068;-75
2023/01/24 12:47:00;;;;;;;26.27;15.80;;;2.40;99.90;;;;;;5071447;28;20039;-77
2023/01/24 12:50:00;;;;;;;22.37;16.63;;;2.50;99.90;;;;;;5071224;28;20051;-76
2023/01/24 12:52:54;;;;;;;23.97;16.87;;;2.50;99.90;;;;;;5070497;28;20478;-76
2023/01/24 12:55:27;;;;;;;24.13;16.23;;;2.50;99.90;;;;;;5070871;28;20044;-76
2023/01/24 12:58:04;;;;;;;23.23;16.33;;;2.40;99.90;;;;;;5070119;28;20064;-76
2023/01/24 13:00:59;;;;;;;25.00;17.20;;;2.50;99.90;;;;;;5070192;28;20473;-76
2023/01/24 13:03:38;;;;;;;23.43;16.90;;;2.50;99.90;;;;;;5070230;28;20052;-76
2023/01/24 13:06:19;;;;;;;23.33;15.60;;;2.50;99.90;;;;;;5071160;28;20044;-75
2023/01/24 13:08:55;;;;;;;;;;;2.50;99.90;;;;;;5070983;28;20059;-76
2023/01/24 13:11:23;;;;;;;25.03;16.07;;;2.50;99.90;;;;;;5069613;28;19924;-76
2023/01/24 13:14:21;;;;;;;23.40;17.10;;;2.50;99.90;;;;;;5069748;28;20094;-76
2023/01/24 13:17:24;;;;;;;24.60;17.17;;;2.50;99.90;;;;;;5069025;28;20478;-76
2023/01/24 13:20:01;;;;;;;25.47;16.50;;;2.50;99.90;;;;;;5070032;28;20090;-77
2023/01/24 13:22:38;;;;;;;22.57;16.77;;;2.40;99.90;;;;;;5070173;28;20036;-76
2023/01/24 13:25:13;;;;;;;25.27;17.67;;;2.40;99.90;;;;;;5060849;28;20048;-76
2023/01/24 13:28:03;;;;;;;22.70;17.53;;;2.40;99.90;;;;;;5063734;28;20050;-76
2023/01/24 13:30:33;;;;;;;24.60;17.13;;;2.40;99.90;;;;;;5069553;28;20076;-76
2023/01/24 13:33:02;;;;;;;25.30;18.37;;;2.40;99.90;;;;;;5068154;28;20045;-76
2023/01/24 13:35:29;;;;;;;25.60;17.97;;;2.40;99.90;;;;;;5070376;28;20045;-77
2023/01/24 13:38:07;;;;;;;27.33;19.43;;;2.40;99.90;;;;;;5070083;28;20044;-77